Íslenskir flugvellir

Veldu flugvelli í þeirri röð sem þeir eiga að birtast og styddu á hnappinn

Uppfært síðast 01.12.2020 - kl. 12:16

SIGMET síðustu 6 klst.

BIRD SIGMET B03 VALID 010800/011000 BIRK- BIRD REYKJAVIK CTA SEV TURB FCST WI N6530 W01510 - N6530 W01830 - N6420 W01910 - N6430 W01420 - N6530 W01510 SFC/FL130 STNR WKN

Egilsstaðir

METAR síðustu 3 klst

TímiSkeyti
2020-12-01 12.00METAR BIEG 011200Z 20026G40KT 9999 BKN055 07/M01 Q0984 R04/290195
2020-12-01 11.00METAR BIEG 011100Z VRB05G15KT 9999 BKN055 08/03 Q0984 R04/290195
2020-12-01 10.00METAR BIEG 011000Z 20012G25KT 9999 BKN055 08/03 Q0985 R04/290195

TAF

TAFBIEG2020-12-01 11.00Z01121221025G35KT 9999 SCT030 BKN050 TX05/0115Z TNM00/0210Z TEMPO 0113/0120 21030G50KT BECMG 0204/0206 22015KT BECMG 0207/0209 30012KT

Allur vindur er réttvísandi bæði í Metar og frá sjálfvirkum veðurstöðvum




Aðrir tengdir vefir



Þetta vefsvæði byggir á Eplica